createdAt,value
2022-09-30T00:01:46.274Z,7.20
2022-09-30T00:04:17.489Z,6.70
2022-09-30T00:06:47.864Z,6.70
2022-09-30T00:09:16.377Z,7.70
2022-09-30T00:11:46.446Z,9.23
2022-09-30T00:14:18.613Z,9.20
2022-09-30T00:16:47.269Z,7.30
2022-09-30T00:19:15.776Z,8.80
2022-09-30T00:21:46.191Z,8.38
2022-09-30T00:24:14.713Z,8.00
2022-09-30T00:26:43.035Z,8.85
2022-09-30T00:29:12.029Z,9.77
2022-09-30T00:31:40.780Z,8.32
2022-09-30T00:34:11.366Z,8.80
2022-09-30T00:39:18.443Z,9.50
2022-09-30T00:41:49.288Z,9.30
2022-09-30T00:47:43.717Z,7.50
2022-09-30T00:50:20.487Z,9.70
2022-09-30T00:52:54.529Z,8.60
2022-09-30T00:55:34.645Z,6.93
2022-09-30T00:58:04.861Z,9.32
2022-09-30T01:00:33.259Z,7.43
2022-09-30T01:03:02.987Z,8.50
2022-09-30T01:05:34.667Z,8.60
2022-09-30T01:08:05.786Z,7.82
2022-09-30T01:10:35.571Z,7.07
2022-09-30T01:13:04.145Z,6.97
2022-09-30T01:15:49.609Z,7.90
2022-09-30T01:18:28.823Z,6.60
2022-09-30T01:21:31.440Z,8.27
2022-09-30T01:24:33.682Z,6.00
2022-09-30T01:27:20.795Z,6.88
2022-09-30T01:30:12.680Z,7.15
2022-09-30T01:33:20.785Z,8.60
2022-09-30T01:36:09.559Z,7.88
2022-09-30T01:38:48.640Z,7.90
2022-09-30T01:41:28.176Z,5.57
2022-09-30T01:44:05.388Z,7.38
2022-09-30T01:46:44.084Z,5.18
2022-09-30T01:49:25.853Z,6.30
2022-09-30T01:52:00.172Z,6.88
2022-09-30T01:54:35.133Z,7.63
2022-09-30T01:57:09.877Z,7.97
2022-09-30T01:59:44.475Z,6.97
2022-09-30T02:02:20.157Z,6.95
2022-09-30T02:04:57.640Z,8.95
2022-09-30T02:07:33.017Z,6.68
2022-09-30T02:10:07.271Z,6.75
2022-09-30T02:12:45.541Z,11.35
2022-09-30T02:15:20.480Z,5.82
2022-09-30T02:17:53.466Z,6.93
2022-09-30T02:20:28.313Z,8.45
2022-09-30T02:23:04.062Z,7.35
2022-09-30T02:25:38.344Z,7.32
2022-09-30T02:28:13.707Z,7.72
2022-09-30T02:30:49.451Z,5.43
2022-09-30T02:33:22.840Z,6.88
2022-09-30T02:35:58.501Z,6.28
2022-09-30T02:38:34.505Z,5.93
2022-09-30T02:41:06.442Z,6.05
2022-09-30T02:43:35.595Z,5.30
2022-09-30T02:46:11.962Z,4.40
2022-09-30T02:48:49.131Z,7.40
2022-09-30T02:51:25.187Z,5.00
2022-09-30T02:54:03.407Z,5.00
2022-09-30T02:56:49.728Z,5.32
2022-09-30T02:59:18.148Z,6.22
2022-09-30T03:01:46.636Z,4.57
2022-09-30T03:04:19.885Z,5.90
2022-09-30T03:06:49.765Z,6.55
2022-09-30T03:09:18.712Z,7.18
2022-09-30T03:11:48.382Z,10.07
2022-09-30T03:14:45.251Z,9.95
2022-09-30T03:17:44.261Z,7.95
2022-09-30T03:20:38.661Z,11.32
2022-09-30T03:23:49.767Z,11.40
2022-09-30T03:26:32.780Z,9.77
2022-09-30T03:29:12.400Z,9.48
2022-09-30T03:31:52.088Z,9.02
2022-09-30T03:34:27.619Z,10.20
2022-09-30T03:37:04.635Z,8.25
2022-09-30T03:39:53.048Z,7.45
2022-09-30T03:42:29.080Z,7.85
2022-09-30T03:45:05.644Z,8.73
2022-09-30T03:47:40.049Z,6.30
2022-09-30T03:50:11.197Z,6.38
2022-09-30T03:52:39.886Z,6.65
2022-09-30T03:55:11.734Z,5.50
2022-09-30T03:57:40.085Z,6.82
2022-09-30T04:00:09.769Z,10.80
2022-09-30T04:02:38.011Z,8.70
2022-09-30T04:05:08.508Z,9.40
2022-09-30T04:07:37.141Z,6.03
2022-09-30T04:10:07.035Z,7.68
2022-09-30T04:12:36.760Z,14.73
2022-09-30T04:15:06.223Z,9.33
2022-09-30T04:17:34.473Z,8.15
2022-09-30T04:20:02.912Z,6.28
2022-09-30T04:22:31.205Z,7.25
2022-09-30T04:24:59.406Z,6.85
2022-09-30T04:27:27.838Z,5.60
2022-09-30T04:29:57.456Z,7.70
2022-09-30T04:32:26.671Z,9.85
2022-09-30T04:34:55.253Z,10.10
2022-09-30T04:37:24.457Z,8.30
2022-09-30T04:39:52.748Z,10.05
2022-09-30T04:42:21.088Z,10.02
2022-09-30T04:44:49.393Z,10.18
2022-09-30T04:47:19.106Z,11.93
2022-09-30T04:49:47.358Z,9.80
2022-09-30T04:52:15.600Z,11.70
2022-09-30T04:54:43.911Z,13.98
2022-09-30T04:57:14.014Z,12.00
2022-09-30T04:59:44.127Z,8.70
2022-09-30T05:02:12.829Z,8.85
2022-09-30T05:04:42.563Z,11.07
2022-09-30T05:07:10.944Z,9.70
2022-09-30T05:09:39.410Z,9.65
2022-09-30T05:12:08.179Z,11.57
2022-09-30T05:14:36.528Z,13.10
2022-09-30T05:17:05.110Z,11.05
2022-09-30T05:19:33.408Z,15.25
2022-09-30T05:22:03.358Z,12.10
2022-09-30T05:24:31.696Z,11.98
2022-09-30T05:26:59.972Z,9.68
2022-09-30T05:29:28.470Z,11.48
2022-09-30T05:31:56.843Z,15.60
2022-09-30T05:34:25.379Z,12.93
2022-09-30T05:36:53.632Z,14.82
2022-09-30T05:39:23.370Z,11.85
2022-09-30T05:41:51.747Z,13.02
2022-09-30T05:44:20.351Z,14.88
2022-09-30T05:46:48.943Z,12.60
2022-09-30T05:49:17.267Z,15.65
2022-09-30T05:51:45.829Z,14.55
2022-09-30T05:54:14.404Z,14.40
2022-09-30T05:56:44.017Z,14.45
2022-09-30T05:59:12.361Z,17.35
2022-09-30T06:01:40.677Z,14.15
2022-09-30T06:04:08.968Z,16.52
2022-09-30T06:06:37.990Z,13.85
2022-09-30T06:09:06.841Z,13.68
2022-09-30T06:11:35.121Z,17.52
2022-09-30T06:14:04.897Z,18.67
2022-09-30T06:16:33.191Z,14.70
2022-09-30T06:19:01.541Z,17.45
2022-09-30T06:21:29.956Z,17.35
2022-09-30T06:23:58.587Z,16.65
2022-09-30T06:26:26.852Z,14.00
2022-09-30T06:28:55.110Z,12.85
2022-09-30T06:31:24.790Z,12.40
2022-09-30T06:33:54.596Z,13.93
2022-09-30T06:36:22.884Z,12.87
2022-09-30T06:38:52.957Z,11.23
2022-09-30T06:41:21.952Z,12.13
2022-09-30T06:43:54.327Z,10.02
2022-09-30T06:46:31.203Z,9.45
2022-09-30T06:49:11.731Z,10.57
2022-09-30T06:51:42.225Z,10.82
2022-09-30T06:54:11.491Z,8.32
2022-09-30T06:56:39.775Z,9.18
2022-09-30T06:59:08.081Z,9.73
2022-09-30T07:01:37.772Z,11.18
2022-09-30T07:04:09.701Z,9.38
2022-09-30T07:06:38.941Z,10.25
2022-09-30T07:09:08.366Z,8.60
2022-09-30T07:11:37.828Z,7.97
2022-09-30T07:14:06.478Z,7.47
2022-09-30T07:16:35.364Z,7.20
2022-09-30T07:19:07.168Z,7.32
2022-09-30T07:21:35.697Z,6.68
2022-09-30T07:24:04.059Z,8.35
2022-09-30T07:26:32.474Z,7.53
2022-09-30T07:29:01.073Z,7.07
2022-09-30T07:31:34.499Z,7.57
2022-09-30T07:34:07.974Z,8.65
2022-09-30T07:36:38.493Z,7.53
2022-09-30T07:39:10.825Z,7.70
2022-09-30T07:41:40.912Z,7.18
2022-09-30T07:44:14.751Z,8.43
2022-09-30T07:46:44.962Z,6.88
2022-09-30T07:49:25.358Z,6.85
2022-09-30T07:54:28.109Z,7.00
2022-09-30T07:57:09.660Z,7.32
2022-09-30T07:59:41.961Z,10.45
2022-09-30T08:02:16.359Z,7.30
2022-09-30T08:04:46.855Z,8.27
2022-09-30T08:07:17.956Z,7.07
2022-09-30T08:09:46.338Z,6.68
2022-09-30T08:12:14.949Z,8.45
2022-09-30T08:14:44.617Z,7.05
2022-09-30T08:17:12.921Z,6.33
2022-09-30T08:19:44.170Z,6.10
2022-09-30T08:22:15.131Z,6.47
2022-09-30T08:24:43.557Z,4.95
2022-09-30T08:27:11.930Z,7.13
2022-09-30T08:29:54.438Z,5.78
2022-09-30T08:32:23.680Z,4.95
2022-09-30T08:34:52.018Z,4.82
2022-09-30T08:37:21.704Z,4.82
2022-09-30T08:39:49.976Z,5.40
2022-09-30T08:42:37.213Z,4.30
2022-09-30T08:45:21.330Z,3.70
2022-09-30T08:48:00.439Z,4.43
2022-09-30T08:50:36.063Z,5.38
2022-09-30T08:53:12.125Z,2.95
2022-09-30T08:55:43.695Z,3.67
2022-09-30T08:58:23.065Z,6.90
2022-09-30T09:00:55.870Z,4.53
2022-09-30T09:03:31.165Z,3.58
2022-09-30T09:06:16.106Z,2.58
2022-09-30T09:09:00.643Z,5.32
2022-09-30T09:11:48.030Z,4.03
2022-09-30T09:14:37.308Z,3.17
2022-09-30T09:17:25.839Z,5.03
2022-09-30T09:20:05.618Z,5.57
2022-09-30T09:22:35.527Z,4.07
2022-09-30T09:25:06.573Z,3.58
2022-09-30T09:27:50.602Z,3.58
2022-09-30T09:30:22.417Z,4.03
2022-09-30T09:32:55.259Z,5.45
2022-09-30T09:35:40.453Z,3.38
2022-09-30T09:38:25.970Z,3.60
2022-09-30T09:41:12.999Z,4.05
2022-09-30T09:43:52.998Z,3.75
2022-09-30T09:46:27.792Z,8.77
2022-09-30T09:49:28.701Z,4.45
2022-09-30T09:54:56.688Z,4.53
2022-09-30T09:57:32.383Z,4.80
2022-09-30T10:00:26.274Z,4.88
2022-09-30T10:03:04.038Z,3.83
2022-09-30T10:05:39.628Z,5.20
2022-09-30T10:08:16.503Z,5.22
2022-09-30T10:10:51.451Z,6.35
2022-09-30T10:13:24.589Z,3.58
2022-09-30T10:15:55.883Z,5.80
2022-09-30T10:18:30.104Z,3.63
2022-09-30T10:21:02.025Z,4.88
2022-09-30T10:23:33.271Z,3.60
2022-09-30T10:26:17.657Z,4.72
2022-09-30T10:28:53.978Z,3.92
2022-09-30T10:31:26.881Z,5.40
2022-09-30T10:34:01.839Z,4.25
2022-09-30T10:36:34.308Z,4.72
2022-09-30T10:39:07.828Z,7.85
2022-09-30T10:41:39.738Z,5.53
2022-09-30T10:44:17.013Z,6.90
2022-09-30T10:46:48.466Z,6.28
2022-09-30T10:49:28.824Z,6.80
2022-09-30T10:51:58.042Z,5.43
2022-09-30T10:54:52.394Z,6.63
2022-09-30T10:57:25.083Z,5.45
2022-09-30T11:00:01.636Z,6.07
2022-09-30T11:02:36.924Z,6.53
2022-09-30T11:05:14.824Z,5.40
2022-09-30T11:07:51.287Z,5.88
2022-09-30T11:10:43.565Z,6.15
2022-09-30T11:13:22.296Z,7.47
2022-09-30T11:16:04.772Z,5.90
2022-09-30T11:18:40.474Z,5.50
2022-09-30T11:21:18.300Z,5.15
2022-09-30T11:23:52.516Z,5.72
2022-09-30T11:26:35.614Z,4.85
2022-09-30T11:29:19.824Z,5.18
2022-09-30T11:31:58.940Z,4.75
2022-09-30T11:34:47.503Z,6.72
2022-09-30T11:37:27.644Z,4.80
2022-09-30T11:40:30.968Z,7.80
2022-09-30T11:43:12.477Z,5.40
2022-09-30T11:46:08.086Z,5.22
2022-09-30T11:48:59.078Z,9.93
2022-09-30T11:51:36.461Z,6.88
2022-09-30T11:54:21.485Z,5.68
2022-09-30T11:56:57.194Z,10.23
2022-09-30T11:59:31.246Z,5.72
2022-09-30T12:02:04.329Z,7.55
2022-09-30T12:04:40.611Z,7.18
2022-09-30T12:07:19.169Z,5.82
2022-09-30T12:09:52.430Z,7.55
2022-09-30T12:12:22.266Z,6.80
2022-09-30T12:14:56.626Z,8.45
2022-09-30T12:17:32.992Z,7.65
2022-09-30T12:20:10.825Z,8.02
2022-09-30T12:22:43.128Z,5.85
2022-09-30T12:25:18.675Z,5.72
2022-09-30T12:27:52.253Z,8.50
2022-09-30T12:30:22.009Z,5.00
2022-09-30T12:33:25.175Z,6.43
2022-09-30T12:36:30.429Z,6.35
2022-09-30T12:40:01.177Z,7.55
2022-09-30T12:43:06.731Z,4.68
2022-09-30T12:46:11.032Z,5.50
2022-09-30T12:48:44.023Z,5.60
2022-09-30T12:51:27.368Z,5.68
2022-09-30T12:54:05.210Z,4.90
2022-09-30T12:56:37.603Z,4.65
2022-09-30T12:59:06.256Z,4.38
2022-09-30T13:01:38.962Z,5.38
2022-09-30T13:04:33.182Z,8.38
2022-09-30T13:07:24.270Z,5.18
2022-09-30T13:10:27.138Z,4.45
2022-09-30T13:13:24.638Z,6.40
2022-09-30T13:15:54.251Z,3.50
2022-09-30T13:19:01.549Z,4.55
2022-09-30T13:21:32.011Z,3.78
2022-09-30T13:24:03.531Z,5.30
2022-09-30T13:26:48.548Z,4.18
2022-09-30T13:29:39.706Z,4.50
2022-09-30T13:32:12.211Z,3.97
2022-09-30T13:35:32.087Z,4.72
2022-09-30T13:38:18.024Z,8.98
2022-09-30T13:41:08.012Z,6.95
2022-09-30T13:43:43.898Z,7.70
2022-09-30T13:46:23.055Z,7.32
2022-09-30T13:48:56.690Z,7.00
2022-09-30T13:51:29.664Z,8.63
2022-09-30T13:54:01.532Z,5.80
2022-09-30T13:56:36.188Z,7.15
2022-09-30T13:59:46.472Z,5.93
2022-09-30T14:03:07.891Z,6.53
2022-09-30T14:05:55.635Z,5.13
2022-09-30T14:08:50.429Z,5.90
2022-09-30T14:11:41.878Z,6.78
2022-09-30T14:14:41.503Z,5.88
2022-09-30T14:17:25.037Z,5.68
2022-09-30T14:20:14.359Z,8.48
2022-09-30T14:22:43.277Z,7.47
2022-09-30T14:25:17.926Z,8.98
2022-09-30T14:28:04.787Z,6.97
2022-09-30T14:30:40.463Z,7.70
2022-09-30T14:33:13.498Z,6.78
2022-09-30T14:35:42.874Z,8.43
2022-09-30T14:38:20.323Z,9.75
2022-09-30T14:40:54.586Z,9.60
2022-09-30T14:43:35.909Z,9.57
2022-09-30T14:46:10.672Z,7.40
2022-09-30T14:48:42.256Z,7.53
2022-09-30T14:51:14.191Z,7.22
2022-09-30T14:53:54.066Z,10.20
2022-09-30T14:56:30.875Z,7.80
2022-09-30T14:59:02.684Z,8.10
2022-09-30T15:01:39.061Z,8.60
2022-09-30T15:04:16.167Z,8.38
2022-09-30T15:06:48.927Z,9.80
2022-09-30T15:09:21.941Z,9.10
2022-09-30T15:11:50.374Z,8.93
2022-09-30T15:14:22.390Z,10.15
2022-09-30T15:16:53.807Z,7.82
2022-09-30T15:19:24.828Z,9.25
2022-09-30T15:21:55.575Z,8.15
2022-09-30T15:24:27.695Z,12.23
2022-09-30T15:26:57.066Z,10.05
2022-09-30T15:29:26.887Z,8.95
2022-09-30T15:32:12.956Z,7.90
2022-09-30T15:34:43.608Z,8.32
2022-09-30T15:40:07.214Z,8.35
2022-09-30T15:42:39.576Z,10.88
2022-09-30T15:45:35.526Z,7.38
2022-09-30T15:48:08.021Z,7.53
2022-09-30T15:50:39.231Z,6.65
2022-09-30T15:53:17.509Z,6.65
2022-09-30T15:55:49.159Z,6.73
2022-09-30T15:58:38.239Z,6.00
2022-09-30T16:01:21.565Z,7.57
2022-09-30T16:03:55.325Z,7.13
2022-09-30T16:06:28.270Z,7.18
2022-09-30T16:09:03.339Z,6.80
2022-09-30T16:11:36.640Z,5.30
2022-09-30T16:14:07.177Z,6.22
2022-09-30T16:16:39.262Z,6.53
2022-09-30T16:19:16.853Z,5.32
2022-09-30T16:21:50.780Z,5.35
2022-09-30T16:24:48.564Z,4.70
2022-09-30T16:27:34.033Z,6.15
2022-09-30T16:30:05.015Z,5.97
2022-09-30T16:32:38.896Z,8.18
2022-09-30T16:35:11.266Z,6.05
2022-09-30T16:37:42.860Z,4.95
2022-09-30T16:40:20.901Z,5.45
2022-09-30T16:42:49.180Z,5.30
2022-09-30T16:45:18.486Z,4.97
2022-09-30T16:47:49.709Z,5.10
2022-09-30T16:50:31.312Z,5.20
2022-09-30T16:52:59.689Z,5.80
2022-09-30T16:55:33.688Z,5.05
2022-09-30T16:58:04.645Z,5.35
2022-09-30T17:00:33.607Z,5.55
2022-09-30T17:03:03.220Z,4.93
2022-09-30T17:05:31.749Z,8.88
2022-09-30T17:08:01.213Z,7.43
2022-09-30T17:10:32.109Z,5.57
2022-09-30T17:13:02.228Z,6.95
2022-09-30T17:15:32.617Z,5.10
2022-09-30T17:18:07.330Z,6.88
2022-09-30T17:20:37.343Z,6.80
2022-09-30T17:23:07.562Z,6.15
2022-09-30T17:25:36.255Z,5.18
2022-09-30T17:28:04.693Z,5.88
2022-09-30T17:30:34.937Z,7.10
2022-09-30T17:33:04.947Z,6.97
2022-09-30T17:35:34.366Z,5.88
2022-09-30T17:38:05.886Z,11.55
2022-09-30T17:40:51.633Z,7.70
2022-09-30T17:43:20.010Z,7.93
2022-09-30T17:45:50.758Z,6.60
2022-09-30T17:48:21.065Z,6.30
2022-09-30T17:50:52.282Z,6.78
2022-09-30T17:53:20.578Z,8.38
2022-09-30T17:56:00.987Z,8.70
2022-09-30T17:58:29.425Z,5.78
2022-09-30T18:00:59.363Z,6.82
2022-09-30T18:03:32.396Z,6.78
2022-09-30T18:06:00.993Z,5.72
2022-09-30T18:08:29.711Z,7.78
2022-09-30T18:10:59.172Z,6.30
2022-09-30T18:13:27.700Z,5.15
2022-09-30T18:15:59.145Z,12.77
2022-09-30T18:18:29.140Z,7.72
2022-09-30T18:20:57.485Z,5.32
2022-09-30T18:23:25.789Z,8.15
2022-09-30T18:25:54.496Z,8.35
2022-09-30T18:28:22.861Z,6.20
2022-09-30T18:30:54.565Z,6.10
2022-09-30T18:33:22.960Z,11.10
2022-09-30T18:35:52.761Z,6.20
2022-09-30T18:38:21.062Z,9.30
2022-09-30T18:40:49.956Z,9.75
2022-09-30T18:43:18.170Z,7.22
2022-09-30T18:45:54.866Z,8.20
2022-09-30T18:48:23.861Z,6.07
2022-09-30T18:50:54.421Z,9.25
2022-09-30T18:56:04.361Z,7.57
2022-09-30T18:58:32.992Z,5.25
2022-09-30T19:01:05.742Z,7.95
2022-09-30T19:03:34.613Z,4.65
2022-09-30T19:06:11.465Z,7.72
2022-09-30T19:08:39.795Z,7.85
2022-09-30T19:11:12.943Z,7.15
2022-09-30T19:13:42.601Z,6.82
2022-09-30T19:16:12.168Z,5.70
2022-09-30T19:18:40.982Z,6.70
2022-09-30T19:21:16.159Z,7.22
2022-09-30T19:23:44.552Z,9.93
2022-09-30T19:26:12.870Z,6.78
2022-09-30T19:28:41.189Z,6.00
2022-09-30T19:31:12.449Z,6.07
2022-09-30T19:33:54.647Z,6.38
2022-09-30T19:36:27.090Z,5.65
2022-09-30T19:39:10.771Z,5.72
2022-09-30T19:41:40.256Z,7.88
2022-09-30T19:44:08.826Z,4.85
2022-09-30T19:46:37.242Z,9.02
2022-09-30T19:49:05.575Z,6.50
2022-09-30T19:51:35.423Z,6.13
2022-09-30T19:54:07.131Z,5.75
2022-09-30T19:56:37.249Z,8.57
2022-09-30T19:59:06.134Z,5.82
2022-09-30T20:01:35.593Z,7.57
2022-09-30T20:04:07.146Z,7.05
2022-09-30T20:06:37.276Z,6.70
2022-09-30T20:09:08.545Z,7.38
2022-09-30T20:11:39.767Z,5.68
2022-09-30T20:14:27.436Z,5.28
2022-09-30T20:16:56.394Z,5.60
2022-09-30T20:19:24.723Z,5.50
2022-09-30T20:21:55.086Z,6.85
2022-09-30T20:24:24.854Z,5.80
2022-09-30T20:26:53.319Z,5.07
2022-09-30T20:29:21.641Z,7.15
2022-09-30T20:31:50.514Z,4.82
2022-09-30T20:34:20.196Z,8.07
2022-09-30T20:36:48.988Z,5.55
2022-09-30T20:39:18.753Z,5.60
2022-09-30T20:41:48.867Z,6.23
2022-09-30T20:44:19.451Z,4.38
2022-09-30T20:46:57.916Z,6.13
2022-09-30T20:49:30.510Z,5.63
2022-09-30T20:52:06.139Z,8.02
2022-09-30T20:54:35.527Z,6.80
2022-09-30T20:57:07.492Z,5.95
2022-09-30T20:59:36.131Z,7.07
2022-09-30T21:02:06.983Z,5.97
2022-09-30T21:04:35.468Z,9.27
2022-09-30T21:07:03.750Z,6.75
2022-09-30T21:09:34.769Z,7.80
2022-09-30T21:12:03.931Z,6.72
2022-09-30T21:14:32.201Z,7.90
2022-09-30T21:17:00.480Z,5.72
2022-09-30T21:19:30.185Z,7.10
2022-09-30T21:21:58.838Z,9.38
2022-09-30T21:24:27.433Z,7.38
2022-09-30T21:26:55.863Z,8.10
2022-09-30T21:29:24.643Z,7.43
2022-09-30T21:31:53.042Z,8.52
2022-09-30T21:34:21.362Z,6.93
2022-09-30T21:36:51.120Z,5.95
2022-09-30T21:39:22.443Z,8.07
2022-09-30T21:41:50.833Z,7.45
2022-09-30T21:44:19.178Z,8.32
2022-09-30T21:46:50.150Z,6.53
2022-09-30T21:49:23.908Z,7.60
2022-09-30T21:51:54.143Z,6.63
2022-09-30T21:54:23.298Z,7.00
2022-09-30T21:56:52.173Z,7.53
2022-09-30T21:59:20.534Z,7.88
2022-09-30T22:01:48.816Z,9.02
2022-09-30T22:04:19.455Z,10.30
2022-09-30T22:06:47.863Z,10.27
2022-09-30T22:09:17.554Z,11.80
2022-09-30T22:11:45.927Z,9.38
2022-09-30T22:14:14.171Z,9.02
2022-09-30T22:16:42.823Z,10.23
2022-09-30T22:19:14.614Z,11.82
2022-09-30T22:21:43.054Z,9.75
2022-09-30T22:24:11.546Z,7.22
2022-09-30T22:26:42.353Z,11.60
2022-09-30T22:29:12.934Z,8.15
2022-09-30T22:31:41.654Z,9.40
2022-09-30T22:34:32.260Z,13.40
2022-09-30T22:37:18.253Z,8.20
2022-09-30T22:39:46.505Z,10.27
2022-09-30T22:42:16.261Z,8.13
2022-09-30T22:44:45.392Z,9.47
2022-09-30T22:47:14.633Z,10.75
2022-09-30T22:49:43.068Z,8.13
2022-09-30T22:52:14.582Z,10.02
2022-09-30T22:54:42.873Z,11.38
2022-09-30T22:57:17.281Z,8.90
2022-09-30T22:59:47.622Z,10.70
2022-09-30T23:02:16.075Z,10.07
2022-09-30T23:04:44.461Z,11.52
2022-09-30T23:07:12.750Z,9.25
2022-09-30T23:09:40.972Z,8.63
2022-09-30T23:12:09.348Z,10.10
2022-09-30T23:14:39.549Z,9.55
2022-09-30T23:17:07.811Z,11.13
2022-09-30T23:19:35.973Z,8.73
2022-09-30T23:22:04.917Z,8.48
2022-09-30T23:24:33.194Z,13.77
2022-09-30T23:27:01.619Z,7.88
2022-09-30T23:29:29.959Z,13.27
2022-09-30T23:31:59.767Z,9.23
2022-09-30T23:34:28.032Z,10.13
2022-09-30T23:36:59.187Z,8.38
2022-09-30T23:39:29.654Z,8.10
2022-09-30T23:41:58.092Z,8.32
2022-09-30T23:44:28.562Z,8.82
2022-09-30T23:47:14.409Z,9.10
2022-09-30T23:49:46.032Z,7.90
2022-09-30T23:52:15.844Z,7.85
2022-09-30T23:54:44.639Z,6.77
2022-09-30T23:57:13.134Z,7.65
2022-09-30T23:59:41.539Z,7.90
